sensor_id;sensor_type;location;lat;lon;timestamp;pressure;altitude;pressure_sealevel;temperature;humidity
44138;BME280;29800;55.942;37.314;2023-04-22T00:00:54;99012.09;;;8.59;47.92
44138;BME280;29800;55.942;37.314;2023-04-22T00:03:21;99015.34;;;8.56;48.58
44138;BME280;29800;55.942;37.314;2023-04-22T00:05:47;99017.19;;;8.50;48.44
44138;BME280;29800;55.942;37.314;2023-04-22T00:08:14;99013.31;;;8.46;48.22
44138;BME280;29800;55.942;37.314;2023-04-22T00:10:40;99015.94;;;8.41;49.09
44138;BME280;29800;55.942;37.314;2023-04-22T00:13:06;99017.53;;;8.37;48.89
44138;BME280;29800;55.942;37.314;2023-04-22T00:15:33;99015.81;;;8.31;48.84
44138;BME280;29800;55.942;37.314;2023-04-22T00:17:59;99014.44;;;8.28;49.10
44138;BME280;29800;55.942;37.314;2023-04-22T00:20:25;99011.38;;;8.24;48.77
44138;BME280;29800;55.942;37.314;2023-04-22T00:22:52;99018.41;;;8.20;49.18
44138;BME280;29800;55.942;37.314;2023-04-22T00:25:18;99011.25;;;8.14;48.70
44138;BME280;29800;55.942;37.314;2023-04-22T00:27:45;99020.16;;;8.09;49.33
44138;BME280;29800;55.942;37.314;2023-04-22T00:30:12;99017.63;;;8.03;49.74
44138;BME280;29800;55.942;37.314;2023-04-22T00:32:38;99020.03;;;7.99;49.12
44138;BME280;29800;55.942;37.314;2023-04-22T00:35:05;99024.31;;;7.95;49.56
44138;BME280;29800;55.942;37.314;2023-04-22T00:37:32;99030.53;;;7.90;50.23
44138;BME280;29800;55.942;37.314;2023-04-22T00:39:58;99021.19;;;7.86;49.66
44138;BME280;29800;55.942;37.314;2023-04-22T00:42:25;99015.94;;;7.80;50.49
44138;BME280;29800;55.942;37.314;2023-04-22T00:44:52;99016.66;;;7.75;50.37
44138;BME280;29800;55.942;37.314;2023-04-22T00:47:19;99016.91;;;7.73;50.47
44138;BME280;29800;55.942;37.314;2023-04-22T00:49:47;99017.66;;;7.69;50.41
44138;BME280;29800;55.942;37.314;2023-04-22T00:52:14;99018.06;;;7.61;50.82
44138;BME280;29800;55.942;37.314;2023-04-22T00:54:40;99020.22;;;7.59;50.58
44138;BME280;29800;55.942;37.314;2023-04-22T00:57:07;99016.28;;;7.49;50.46
44138;BME280;29800;55.942;37.314;2023-04-22T00:59:33;99015.13;;;7.45;51.47
44138;BME280;29800;55.942;37.314;2023-04-22T01:02:00;99015.03;;;7.40;51.39
44138;BME280;29800;55.942;37.314;2023-04-22T01:04:26;99012.47;;;7.33;51.19
44138;BME280;29800;55.942;37.314;2023-04-22T01:06:54;99011.31;;;7.29;51.44
44138;BME280;29800;55.942;37.314;2023-04-22T01:09:21;99012.56;;;7.22;51.86
44138;BME280;29800;55.942;37.314;2023-04-22T01:11:47;99008.34;;;7.14;51.81
44138;BME280;29800;55.942;37.314;2023-04-22T01:14:14;99003.63;;;7.09;51.73
44138;BME280;29800;55.942;37.314;2023-04-22T01:16:41;99010.63;;;7.05;51.86
44138;BME280;29800;55.942;37.314;2023-04-22T01:19:10;99006.75;;;7.01;52.11
44138;BME280;29800;55.942;37.314;2023-04-22T01:21:38;99004.50;;;6.98;52.12
44138;BME280;29800;55.942;37.314;2023-04-22T01:24:06;99005.00;;;6.95;52.96
44138;BME280;29800;55.942;37.314;2023-04-22T01:26:33;99003.28;;;6.89;52.65
44138;BME280;29800;55.942;37.314;2023-04-22T01:29:00;99000.19;;;6.85;52.84
44138;BME280;29800;55.942;37.314;2023-04-22T01:31:28;98999.53;;;6.78;53.00
44138;BME280;29800;55.942;37.314;2023-04-22T01:33:54;99005.09;;;6.71;53.33
44138;BME280;29800;55.942;37.314;2023-04-22T01:36:21;98997.34;;;6.63;53.49
44138;BME280;29800;55.942;37.314;2023-04-22T01:38:47;98998.41;;;6.62;53.81
44138;BME280;29800;55.942;37.314;2023-04-22T01:41:14;99003.75;;;6.57;53.46
44138;BME280;29800;55.942;37.314;2023-04-22T01:43:42;98999.72;;;6.59;53.87
44138;BME280;29800;55.942;37.314;2023-04-22T01:46:09;99008.13;;;6.58;53.57
44138;BME280;29800;55.942;37.314;2023-04-22T01:48:36;99005.31;;;6.53;54.43
44138;BME280;29800;55.942;37.314;2023-04-22T01:51:03;99006.25;;;6.47;53.71
44138;BME280;29800;55.942;37.314;2023-04-22T01:53:29;99002.34;;;6.42;54.74
44138;BME280;29800;55.942;37.314;2023-04-22T01:55:56;99001.19;;;6.38;54.56
44138;BME280;29800;55.942;37.314;2023-04-22T01:58:22;99000.88;;;6.35;54.51
44138;BME280;29800;55.942;37.314;2023-04-22T02:00:48;99005.44;;;6.34;54.53
44138;BME280;29800;55.942;37.314;2023-04-22T02:03:15;99007.59;;;6.32;54.77
44138;BME280;29800;55.942;37.314;2023-04-22T02:05:41;99003.47;;;6.30;54.80
44138;BME280;29800;55.942;37.314;2023-04-22T02:08:07;98994.72;;;6.28;54.80
44138;BME280;29800;55.942;37.314;2023-04-22T02:10:35;98997.69;;;6.26;54.73
44138;BME280;29800;55.942;37.314;2023-04-22T02:13:01;99003.59;;;6.23;54.94
44138;BME280;29800;55.942;37.314;2023-04-22T02:15:28;99004.09;;;6.20;55.20
44138;BME280;29800;55.942;37.314;2023-04-22T02:17:54;98995.31;;;6.18;55.47
44138;BME280;29800;55.942;37.314;2023-04-22T02:20:20;98997.94;;;6.13;55.49
44138;BME280;29800;55.942;37.314;2023-04-22T02:22:46;98999.59;;;6.14;55.78
44138;BME280;29800;55.942;37.314;2023-04-22T02:25:13;98993.59;;;6.12;55.64
44138;BME280;29800;55.942;37.314;2023-04-22T02:27:39;98997.59;;;6.09;55.69
44138;BME280;29800;55.942;37.314;2023-04-22T02:30:07;99000.31;;;6.09;56.15
44138;BME280;29800;55.942;37.314;2023-04-22T02:32:34;98999.50;;;6.09;55.73
44138;BME280;29800;55.942;37.314;2023-04-22T02:35:01;99001.38;;;6.08;55.69
44138;BME280;29800;55.942;37.314;2023-04-22T02:37:28;99006.00;;;6.07;56.01
44138;BME280;29800;55.942;37.314;2023-04-22T02:39:54;99000.56;;;6.07;56.20
44138;BME280;29800;55.942;37.314;2023-04-22T02:42:21;99000.09;;;6.11;55.92
44138;BME280;29800;55.942;37.314;2023-04-22T02:44:47;99006.66;;;6.15;55.98
44138;BME280;29800;55.942;37.314;2023-04-22T02:47:14;99010.81;;;6.17;56.32
44138;BME280;29800;55.942;37.314;2023-04-22T02:49:40;99011.97;;;6.21;56.21
44138;BME280;29800;55.942;37.314;2023-04-22T02:52:08;99015.31;;;6.23;56.39
44138;BME280;29800;55.942;37.314;2023-04-22T02:54:34;99008.53;;;6.26;56.03
44138;BME280;29800;55.942;37.314;2023-04-22T02:57:00;99015.97;;;6.31;56.27
44138;BME280;29800;55.942;37.314;2023-04-22T02:59:28;99007.34;;;6.34;56.25
44138;BME280;29800;55.942;37.314;2023-04-22T03:01:54;99015.84;;;6.37;55.75
44138;BME280;29800;55.942;37.314;2023-04-22T03:04:36;99006.75;;;6.43;56.14
44138;BME280;29800;55.942;37.314;2023-04-22T03:07:02;99015.56;;;6.51;55.98
44138;BME280;29800;55.942;37.314;2023-04-22T03:09:29;99009.66;;;6.54;56.04
44138;BME280;29800;55.942;37.314;2023-04-22T03:11:55;99009.75;;;6.59;55.77
44138;BME280;29800;55.942;37.314;2023-04-22T03:14:21;99008.22;;;6.63;56.16
44138;BME280;29800;55.942;37.314;2023-04-22T03:16:49;99001.81;;;6.69;55.44
44138;BME280;29800;55.942;37.314;2023-04-22T03:19:15;99010.06;;;6.74;55.65
44138;BME280;29800;55.942;37.314;2023-04-22T03:21:42;99009.91;;;6.81;55.33
44138;BME280;29800;55.942;37.314;2023-04-22T03:24:08;99014.63;;;6.86;55.40
44138;BME280;29800;55.942;37.314;2023-04-22T03:26:36;99016.34;;;6.92;54.96
44138;BME280;29800;55.942;37.314;2023-04-22T03:29:02;99012.44;;;6.99;55.17
44138;BME280;29800;55.942;37.314;2023-04-22T03:31:29;99017.72;;;7.06;54.64
44138;BME280;29800;55.942;37.314;2023-04-22T03:33:57;99024.34;;;7.10;54.56
44138;BME280;29800;55.942;37.314;2023-04-22T03:36:27;99025.00;;;7.17;54.85
44138;BME280;29800;55.942;37.314;2023-04-22T03:38:54;99025.31;;;7.21;54.17
44138;BME280;29800;55.942;37.314;2023-04-22T03:41:23;99028.97;;;7.27;54.38
44138;BME280;29800;55.942;37.314;2023-04-22T03:43:54;99032.34;;;7.34;53.95
44138;BME280;29800;55.942;37.314;2023-04-22T03:46:21;99034.09;;;7.40;54.51
44138;BME280;29800;55.942;37.314;2023-04-22T03:49:13;99040.53;;;7.51;53.93
44138;BME280;29800;55.942;37.314;2023-04-22T03:51:41;99039.88;;;7.61;54.03
44138;BME280;29800;55.942;37.314;2023-04-22T03:54:11;99039.44;;;7.69;54.00
44138;BME280;29800;55.942;37.314;2023-04-22T03:56:44;99037.66;;;7.75;53.32
44138;BME280;29800;55.942;37.314;2023-04-22T03:59:11;99044.00;;;7.80;53.08
44138;BME280;29800;55.942;37.314;2023-04-22T04:01:37;99038.63;;;7.85;53.21
44138;BME280;29800;55.942;37.314;2023-04-22T04:04:11;99038.25;;;8.55;57.56
44138;BME280;29800;55.942;37.314;2023-04-22T04:06:51;99029.44;;;9.51;55.64
44138;BME280;29800;55.942;37.314;2023-04-22T04:09:19;99026.88;;;10.68;53.53
44138;BME280;29800;55.942;37.314;2023-04-22T04:11:46;99035.00;;;11.62;51.12
44138;BME280;29800;55.942;37.314;2023-04-22T04:14:13;99031.59;;;12.47;48.80
44138;BME280;29800;55.942;37.314;2023-04-22T04:16:46;99034.97;;;12.94;47.23
44138;BME280;29800;55.942;37.314;2023-04-22T04:19:21;99035.63;;;13.20;44.16
44138;BME280;29800;55.942;37.314;2023-04-22T04:21:48;99042.94;;;12.85;42.27
44138;BME280;29800;55.942;37.314;2023-04-22T04:24:14;99039.28;;;12.35;42.81
44138;BME280;29800;55.942;37.314;2023-04-22T04:26:46;99047.03;;;11.81;43.42
44138;BME280;29800;55.942;37.314;2023-04-22T04:29:18;99043.75;;;11.43;43.83
44138;BME280;29800;55.942;37.314;2023-04-22T04:32:00;99041.25;;;11.16;44.68
44138;BME280;29800;55.942;37.314;2023-04-22T04:34:27;99049.13;;;10.97;45.10
44138;BME280;29800;55.942;37.314;2023-04-22T04:36:54;99051.28;;;10.84;45.70
44138;BME280;29800;55.942;37.314;2023-04-22T04:39:28;99046.88;;;10.73;45.71
44138;BME280;29800;55.942;37.314;2023-04-22T04:41:57;99048.50;;;10.69;46.12
44138;BME280;29800;55.942;37.314;2023-04-22T04:44:28;99044.66;;;10.65;46.42
44138;BME280;29800;55.942;37.314;2023-04-22T04:46:58;99044.91;;;10.63;46.21
44138;BME280;29800;55.942;37.314;2023-04-22T04:49:25;99042.72;;;10.60;46.26
44138;BME280;29800;55.942;37.314;2023-04-22T04:51:57;99044.63;;;10.60;46.61
44138;BME280;29800;55.942;37.314;2023-04-22T04:54:25;99044.09;;;10.58;46.84
44138;BME280;29800;55.942;37.314;2023-04-22T04:56:51;99040.81;;;10.61;46.75
44138;BME280;29800;55.942;37.314;2023-04-22T04:59:18;99046.31;;;10.66;46.18
44138;BME280;29800;55.942;37.314;2023-04-22T05:01:44;99048.50;;;10.69;46.25
44138;BME280;29800;55.942;37.314;2023-04-22T05:04:12;99041.69;;;10.77;45.53
44138;BME280;29800;55.942;37.314;2023-04-22T05:06:40;99046.63;;;10.85;45.24
44138;BME280;29800;55.942;37.314;2023-04-22T05:09:10;99057.91;;;10.99;45.35
44138;BME280;29800;55.942;37.314;2023-04-22T05:11:37;99052.72;;;11.08;45.28
44138;BME280;29800;55.942;37.314;2023-04-22T05:14:11;99047.81;;;11.15;44.74
44138;BME280;29800;55.942;37.314;2023-04-22T05:16:40;99051.94;;;11.22;44.69
44138;BME280;29800;55.942;37.314;2023-04-22T05:19:08;99045.91;;;11.31;44.20
44138;BME280;29800;55.942;37.314;2023-04-22T05:21:40;99053.34;;;11.40;44.32
44138;BME280;29800;55.942;37.314;2023-04-22T05:24:07;99055.00;;;11.52;43.84
44138;BME280;29800;55.942;37.314;2023-04-22T05:26:33;99054.44;;;11.60;43.40
44138;BME280;29800;55.942;37.314;2023-04-22T05:29:04;99053.09;;;11.73;43.64
44138;BME280;29800;55.942;37.314;2023-04-22T05:31:32;99051.97;;;11.84;42.94
44138;BME280;29800;55.942;37.314;2023-04-22T05:33:58;99050.06;;;12.00;42.85
44138;BME280;29800;55.942;37.314;2023-04-22T05:36:25;99045.94;;;12.08;42.70
44138;BME280;29800;55.942;37.314;2023-04-22T05:38:52;99052.25;;;12.19;42.07
44138;BME280;29800;55.942;37.314;2023-04-22T05:41:19;99050.56;;;12.28;42.04
44138;BME280;29800;55.942;37.314;2023-04-22T05:43:46;99054.66;;;12.36;41.83
44138;BME280;29800;55.942;37.314;2023-04-22T05:46:16;99050.25;;;12.45;41.72
44138;BME280;29800;55.942;37.314;2023-04-22T05:48:45;99044.72;;;12.55;41.95
44138;BME280;29800;55.942;37.314;2023-04-22T05:51:34;99054.53;;;12.72;41.93
44138;BME280;29800;55.942;37.314;2023-04-22T05:54:00;99056.16;;;12.83;40.39
44138;BME280;29800;55.942;37.314;2023-04-22T05:56:27;99053.88;;;12.95;40.08
44138;BME280;29800;55.942;37.314;2023-04-22T05:58:53;99051.09;;;13.05;39.91
44138;BME280;29800;55.942;37.314;2023-04-22T06:01:22;99052.41;;;13.18;39.59
44138;BME280;29800;55.942;37.314;2023-04-22T06:03:59;99058.63;;;13.29;38.86
44138;BME280;29800;55.942;37.314;2023-04-22T06:06:25;99060.81;;;13.37;38.47
44138;BME280;29800;55.942;37.314;2023-04-22T06:08:52;99049.75;;;13.48;38.80
44138;BME280;29800;55.942;37.314;2023-04-22T06:11:18;99057.69;;;13.54;38.27
44138;BME280;29800;55.942;37.314;2023-04-22T06:13:45;99051.03;;;13.60;38.47
44138;BME280;29800;55.942;37.314;2023-04-22T06:16:11;99052.69;;;13.62;37.88
44138;BME280;29800;55.942;37.314;2023-04-22T06:18:37;99053.78;;;13.60;37.67
44138;BME280;29800;55.942;37.314;2023-04-22T06:21:05;99055.19;;;13.58;37.71
44138;BME280;29800;55.942;37.314;2023-04-22T06:23:32;99056.00;;;13.58;37.55
44138;BME280;29800;55.942;37.314;2023-04-22T06:25:58;99057.38;;;13.56;37.94
44138;BME280;29800;55.942;37.314;2023-04-22T06:28:27;99048.03;;;13.57;37.55
44138;BME280;29800;55.942;37.314;2023-04-22T06:31:01;99050.47;;;13.64;38.93
44138;BME280;29800;55.942;37.314;2023-04-22T06:33:28;99049.03;;;13.71;37.89
44138;BME280;29800;55.942;37.314;2023-04-22T06:35:54;99044.41;;;13.96;37.65
44138;BME280;29800;55.942;37.314;2023-04-22T06:38:21;99047.22;;;14.20;37.52
44138;BME280;29800;55.942;37.314;2023-04-22T06:41:10;99045.59;;;14.43;36.59
44138;BME280;29800;55.942;37.314;2023-04-22T06:43:41;99043.38;;;14.69;38.12
44138;BME280;29800;55.942;37.314;2023-04-22T06:46:08;99042.44;;;14.79;36.32
44138;BME280;29800;55.942;37.314;2023-04-22T06:48:52;99036.66;;;15.00;36.36
44138;BME280;29800;55.942;37.314;2023-04-22T06:51:45;99032.63;;;15.11;35.20
44138;BME280;29800;55.942;37.314;2023-04-22T06:54:12;99030.28;;;15.23;34.72
44138;BME280;29800;55.942;37.314;2023-04-22T06:56:38;99032.88;;;15.34;34.97
44138;BME280;29800;55.942;37.314;2023-04-22T06:59:05;99037.41;;;15.43;34.19
44138;BME280;29800;55.942;37.314;2023-04-22T07:01:33;99029.72;;;15.59;34.96
44138;BME280;29800;55.942;37.314;2023-04-22T07:04:00;99027.59;;;15.89;34.53
44138;BME280;29800;55.942;37.314;2023-04-22T07:06:26;99021.53;;;16.20;33.23
44138;BME280;29800;55.942;37.314;2023-04-22T07:08:53;99029.19;;;16.51;33.05
44138;BME280;29800;55.942;37.314;2023-04-22T07:11:20;99026.63;;;16.68;32.87
44138;BME280;29800;55.942;37.314;2023-04-22T07:14:06;99035.84;;;16.92;32.87
44138;BME280;29800;55.942;37.314;2023-04-22T07:16:33;99023.56;;;16.98;33.06
44138;BME280;29800;55.942;37.314;2023-04-22T07:18:59;99027.56;;;16.92;32.50
44138;BME280;29800;55.942;37.314;2023-04-22T07:21:25;99026.41;;;16.79;31.77
44138;BME280;29800;55.942;37.314;2023-04-22T07:23:52;99036.56;;;16.69;32.85
44138;BME280;29800;55.942;37.314;2023-04-22T07:26:18;99040.53;;;16.49;32.59
44138;BME280;29800;55.942;37.314;2023-04-22T07:28:45;99033.06;;;16.36;32.19
44138;BME280;29800;55.942;37.314;2023-04-22T07:31:12;99032.38;;;16.30;32.25
44138;BME280;29800;55.942;37.314;2023-04-22T07:33:38;99035.22;;;16.25;32.47
44138;BME280;29800;55.942;37.314;2023-04-22T07:36:05;99033.78;;;16.14;32.64
44138;BME280;29800;55.942;37.314;2023-04-22T07:38:32;99040.91;;;16.15;33.30
44138;BME280;29800;55.942;37.314;2023-04-22T07:40:58;99030.47;;;15.98;32.43
44138;BME280;29800;55.942;37.314;2023-04-22T07:43:24;99036.41;;;16.05;32.81
44138;BME280;29800;55.942;37.314;2023-04-22T07:45:51;99041.56;;;16.12;32.46
44138;BME280;29800;55.942;37.314;2023-04-22T07:48:17;99036.00;;;15.98;31.94
44138;BME280;29800;55.942;37.314;2023-04-22T07:50:43;99039.03;;;15.83;31.96
44138;BME280;29800;55.942;37.314;2023-04-22T07:53:10;99038.63;;;15.70;32.50
44138;BME280;29800;55.942;37.314;2023-04-22T07:55:37;99039.50;;;15.52;32.07
44138;BME280;29800;55.942;37.314;2023-04-22T07:58:03;99047.38;;;15.39;32.59
44138;BME280;29800;55.942;37.314;2023-04-22T08:00:34;99040.47;;;15.42;32.71
44138;BME280;29800;55.942;37.314;2023-04-22T08:03:01;99042.16;;;15.57;33.36
44138;BME280;29800;55.942;37.314;2023-04-22T08:05:28;99024.69;;;15.80;32.35
44138;BME280;29800;55.942;37.314;2023-04-22T08:07:54;99030.72;;;16.15;32.32
44138;BME280;29800;55.942;37.314;2023-04-22T08:10:21;99033.38;;;16.34;30.64
44138;BME280;29800;55.942;37.314;2023-04-22T08:12:47;99038.94;;;16.48;33.25
44138;BME280;29800;55.942;37.314;2023-04-22T08:15:13;99033.59;;;16.38;30.43
44138;BME280;29800;55.942;37.314;2023-04-22T08:17:40;99036.66;;;16.23;30.73
44138;BME280;29800;55.942;37.314;2023-04-22T08:20:07;99033.03;;;16.08;29.47
44138;BME280;29800;55.942;37.314;2023-04-22T08:22:33;99028.59;;;15.93;29.41
44138;BME280;29800;55.942;37.314;2023-04-22T08:25:00;99030.53;;;15.79;30.32
44138;BME280;29800;55.942;37.314;2023-04-22T08:27:26;99032.91;;;15.67;29.97
44138;BME280;29800;55.942;37.314;2023-04-22T08:29:53;99032.53;;;15.54;30.85
44138;BME280;29800;55.942;37.314;2023-04-22T08:32:19;99030.47;;;15.46;30.87
44138;BME280;29800;55.942;37.314;2023-04-22T08:34:47;99033.88;;;15.38;31.34
44138;BME280;29800;55.942;37.314;2023-04-22T08:37:13;99031.81;;;15.30;31.55
44138;BME280;29800;55.942;37.314;2023-04-22T08:39:40;99026.91;;;15.27;31.59
44138;BME280;29800;55.942;37.314;2023-04-22T08:42:06;99035.63;;;15.15;31.96
44138;BME280;29800;55.942;37.314;2023-04-22T08:44:34;99030.78;;;15.25;31.97
44138;BME280;29800;55.942;37.314;2023-04-22T08:47:01;99032.19;;;15.42;31.34
44138;BME280;29800;55.942;37.314;2023-04-22T08:49:29;99023.13;;;15.74;31.56
44138;BME280;29800;55.942;37.314;2023-04-22T08:51:55;99027.00;;;16.06;30.43
44138;BME280;29800;55.942;37.314;2023-04-22T08:54:22;99034.22;;;16.49;30.78
44138;BME280;29800;55.942;37.314;2023-04-22T08:56:49;99029.63;;;16.86;29.39
44138;BME280;29800;55.942;37.314;2023-04-22T08:59:18;99018.53;;;17.14;29.06
44138;BME280;29800;55.942;37.314;2023-04-22T09:01:49;99029.38;;;17.47;30.06
44138;BME280;29800;55.942;37.314;2023-04-22T09:04:18;99017.66;;;17.72;28.49
44138;BME280;29800;55.942;37.314;2023-04-22T09:06:44;99010.72;;;17.97;29.23
44138;BME280;29800;55.942;37.314;2023-04-22T09:09:11;99017.50;;;18.23;28.49
44138;BME280;29800;55.942;37.314;2023-04-22T09:11:37;99018.88;;;18.34;28.09
44138;BME280;29800;55.942;37.314;2023-04-22T09:14:03;99019.41;;;18.45;27.84
44138;BME280;29800;55.942;37.314;2023-04-22T09:16:31;99005.59;;;18.53;27.36
44138;BME280;29800;55.942;37.314;2023-04-22T09:18:58;99007.88;;;18.60;27.51
44138;BME280;29800;55.942;37.314;2023-04-22T09:21:25;99008.53;;;18.66;27.21
44138;BME280;29800;55.942;37.314;2023-04-22T09:23:54;99003.78;;;18.58;27.05
44138;BME280;29800;55.942;37.314;2023-04-22T09:26:23;99010.50;;;18.65;28.76
44138;BME280;29800;55.942;37.314;2023-04-22T09:28:56;99015.56;;;18.63;26.69
44138;BME280;29800;55.942;37.314;2023-04-22T09:31:24;99012.81;;;18.72;28.40
44138;BME280;29800;55.942;37.314;2023-04-22T09:33:55;99017.63;;;18.58;26.63
44138;BME280;29800;55.942;37.314;2023-04-22T09:36:26;99014.53;;;18.50;27.00
44138;BME280;29800;55.942;37.314;2023-04-22T09:38:56;99018.75;;;18.48;28.43
44138;BME280;29800;55.942;37.314;2023-04-22T09:41:29;99014.13;;;18.34;27.23
44138;BME280;29800;55.942;37.314;2023-04-22T09:43:57;99015.78;;;18.04;27.45
44138;BME280;29800;55.942;37.314;2023-04-22T09:46:25;99005.03;;;17.80;27.13
44138;BME280;29800;55.942;37.314;2023-04-22T09:48:56;99009.44;;;17.58;26.93
44138;BME280;29800;55.942;37.314;2023-04-22T09:51:24;99015.41;;;17.52;27.11
44138;BME280;29800;55.942;37.314;2023-04-22T09:54:00;99003.84;;;17.50;27.09
44138;BME280;29800;55.942;37.314;2023-04-22T09:56:50;99011.28;;;17.63;27.13
44138;BME280;29800;55.942;37.314;2023-04-22T10:01:49;98989.81;;;18.23;25.97
44138;BME280;29800;55.942;37.314;2023-04-22T10:04:16;98994.78;;;18.43;25.48
44138;BME280;29800;55.942;37.314;2023-04-22T10:06:43;98989.28;;;18.61;25.36
44138;BME280;29800;55.942;37.314;2023-04-22T10:09:09;98979.72;;;18.76;25.39
44138;BME280;29800;55.942;37.314;2023-04-22T10:11:36;98990.06;;;19.10;25.92
44138;BME280;29800;55.942;37.314;2023-04-22T10:14:02;98991.22;;;19.09;25.24
44138;BME280;29800;55.942;37.314;2023-04-22T10:16:31;98996.94;;;19.04;25.88
44138;BME280;29800;55.942;37.314;2023-04-22T10:19:01;98998.34;;;18.84;25.92
44138;BME280;29800;55.942;37.314;2023-04-22T10:21:30;98996.16;;;18.72;26.28
44138;BME280;29800;55.942;37.314;2023-04-22T10:23:58;99001.22;;;18.61;26.36
44138;BME280;29800;55.942;37.314;2023-04-22T10:26:54;98994.97;;;18.55;26.84
44138;BME280;29800;55.942;37.314;2023-04-22T10:29:35;98998.34;;;18.35;28.11
44138;BME280;29800;55.942;37.314;2023-04-22T10:32:22;98997.63;;;18.21;26.65
44138;BME280;29800;55.942;37.314;2023-04-22T10:35:06;98995.78;;;18.07;26.85
44138;BME280;29800;55.942;37.314;2023-04-22T10:37:33;98994.38;;;18.18;26.95
44138;BME280;29800;55.942;37.314;2023-04-22T10:40:13;98992.81;;;18.35;27.17
44138;BME280;29800;55.942;37.314;2023-04-22T10:42:45;98989.44;;;18.47;25.25
44138;BME280;29800;55.942;37.314;2023-04-22T10:45:13;98985.44;;;18.79;25.26
44138;BME280;29800;55.942;37.314;2023-04-22T10:47:41;98991.19;;;19.00;24.98
44138;BME280;29800;55.942;37.314;2023-04-22T10:50:30;99002.16;;;19.14;25.01
44138;BME280;29800;55.942;37.314;2023-04-22T10:52:59;98991.38;;;19.13;26.44
44138;BME280;29800;55.942;37.314;2023-04-22T10:55:48;99002.97;;;19.23;25.62
44138;BME280;29800;55.942;37.314;2023-04-22T10:58:20;98993.34;;;19.47;24.63
44138;BME280;29800;55.942;37.314;2023-04-22T11:00:46;98987.78;;;19.64;24.18
44138;BME280;29800;55.942;37.314;2023-04-22T11:03:18;98985.97;;;19.77;23.81
44138;BME280;29800;55.942;37.314;2023-04-22T11:06:17;98982.88;;;19.79;24.20
44138;BME280;29800;55.942;37.314;2023-04-22T11:08:45;98977.47;;;19.74;24.28
44138;BME280;29800;55.942;37.314;2023-04-22T11:11:12;98979.28;;;19.78;24.62
44138;BME280;29800;55.942;37.314;2023-04-22T11:13:42;98984.66;;;19.92;24.80
44138;BME280;29800;55.942;37.314;2023-04-22T11:16:09;98993.94;;;19.96;24.86
44138;BME280;29800;55.942;37.314;2023-04-22T11:18:37;98989.03;;;19.93;25.01
44138;BME280;29800;55.942;37.314;2023-04-22T11:21:04;99000.00;;;19.72;24.83
44138;BME280;29800;55.942;37.314;2023-04-22T11:23:31;99005.41;;;19.51;24.93
44138;BME280;29800;55.942;37.314;2023-04-22T11:26:03;98987.63;;;19.52;25.23
44138;BME280;29800;55.942;37.314;2023-04-22T11:28:30;98979.44;;;19.56;25.01
44138;BME280;29800;55.942;37.314;2023-04-22T11:31:08;98978.13;;;19.71;25.37
44138;BME280;29800;55.942;37.314;2023-04-22T11:33:37;98969.81;;;19.62;23.47
44138;BME280;29800;55.942;37.314;2023-04-22T11:36:08;98972.59;;;19.62;23.71
44138;BME280;29800;55.942;37.314;2023-04-22T11:38:34;98976.69;;;19.64;23.22
44138;BME280;29800;55.942;37.314;2023-04-22T11:41:01;98968.19;;;19.52;23.51
44138;BME280;29800;55.942;37.314;2023-04-22T11:43:29;98970.84;;;19.40;24.31
44138;BME280;29800;55.942;37.314;2023-04-22T11:45:59;98967.91;;;19.19;24.43
44138;BME280;29800;55.942;37.314;2023-04-22T11:48:25;98970.13;;;18.90;24.05
44138;BME280;29800;55.942;37.314;2023-04-22T11:51:07;98981.81;;;18.70;25.22
44138;BME280;29800;55.942;37.314;2023-04-22T11:53:34;98987.63;;;18.42;25.72
44138;BME280;29800;55.942;37.314;2023-04-22T11:56:02;98981.78;;;18.12;26.30
44138;BME280;29800;55.942;37.314;2023-04-22T11:58:28;98977.22;;;18.08;27.49
44138;BME280;29800;55.942;37.314;2023-04-22T12:00:57;98972.78;;;18.07;26.68
44138;BME280;29800;55.942;37.314;2023-04-22T12:03:28;98978.84;;;18.09;25.85
44138;BME280;29800;55.942;37.314;2023-04-22T12:10:58;98971.38;;;18.67;27.07
44138;BME280;29800;55.942;37.314;2023-04-22T12:13:32;98968.03;;;19.05;27.52
44138;BME280;29800;55.942;37.314;2023-04-22T12:16:01;98963.63;;;19.21;24.26
44138;BME280;29800;55.942;37.314;2023-04-22T12:18:35;98963.31;;;19.32;23.91
44138;BME280;29800;55.942;37.314;2023-04-22T12:21:11;98960.03;;;19.29;23.47
44138;BME280;29800;55.942;37.314;2023-04-22T12:23:42;98956.78;;;19.27;23.79
44138;BME280;29800;55.942;37.314;2023-04-22T12:26:10;98958.75;;;19.36;24.34
44138;BME280;29800;55.942;37.314;2023-04-22T12:28:37;98956.63;;;19.50;23.34
44138;BME280;29800;55.942;37.314;2023-04-22T12:31:04;98949.72;;;19.65;23.77
44138;BME280;29800;55.942;37.314;2023-04-22T12:33:31;98952.31;;;19.70;23.77
44138;BME280;29800;55.942;37.314;2023-04-22T12:35:58;98954.78;;;19.72;24.01
44138;BME280;29800;55.942;37.314;2023-04-22T12:38:24;98954.97;;;19.58;23.04
44138;BME280;29800;55.942;37.314;2023-04-22T12:40:52;98954.66;;;19.33;23.25
44138;BME280;29800;55.942;37.314;2023-04-22T12:43:18;98947.97;;;19.08;23.54
44138;BME280;29800;55.942;37.314;2023-04-22T12:45:45;98944.69;;;18.88;24.96
44138;BME280;29800;55.942;37.314;2023-04-22T12:48:12;98953.50;;;18.90;26.34
44138;BME280;29800;55.942;37.314;2023-04-22T12:50:39;98950.59;;;18.96;25.00
44138;BME280;29800;55.942;37.314;2023-04-22T12:53:06;98951.25;;;18.92;25.13
44138;BME280;29800;55.942;37.314;2023-04-22T12:55:33;98955.94;;;18.83;24.89
44138;BME280;29800;55.942;37.314;2023-04-22T12:58:00;98951.66;;;18.60;25.48
44138;BME280;29800;55.942;37.314;2023-04-22T13:00:27;98945.06;;;18.38;25.46
44138;BME280;29800;55.942;37.314;2023-04-22T13:02:53;98946.63;;;18.22;25.47
44138;BME280;29800;55.942;37.314;2023-04-22T13:05:20;98948.91;;;18.19;26.64
44138;BME280;29800;55.942;37.314;2023-04-22T13:07:47;98941.88;;;18.13;25.61